Terminal Aerodrome Forecast
Issued by NWS

Home | Current Version | Previous Version | Text Only | Print | Product List | Glossary On
Versions: 1 2 3 4 5 6 7 8 9 10 11 12 13 14 15 16
000
FTUS41 KCAR 181100
TAFHUL
TAF
KHUL 181131Z 1812/1912 16006KT P6SM SCT250
     FM190000 16004KT P6SM SCT250
     FM190600 20004KT P6SM OVC045
     FM191000 22004KT P6SM OVC250=

USA.gov is the U.S. government's official web portal to all federal, state and local government web resources and services.